sensor_id;sensor_type;location;lat;lon;timestamp;P1;durP1;ratioP1;P2;durP2;ratioP2
40515;SDS011;26216;53.724;9.898;2023-07-09T00:02:20;2.30;;;1.50;;
40515;SDS011;26216;53.724;9.898;2023-07-09T00:04:47;2.70;;;1.90;;
40515;SDS011;26216;53.724;9.898;2023-07-09T00:07:21;2.65;;;1.65;;
40515;SDS011;26216;53.724;9.898;2023-07-09T00:09:51;2.67;;;1.60;;
40515;SDS011;26216;53.724;9.898;2023-07-09T00:12:18;3.05;;;1.83;;
40515;SDS011;26216;53.724;9.898;2023-07-09T00:14:44;2.85;;;1.70;;
40515;SDS011;26216;53.724;9.898;2023-07-09T00:17:11;2.05;;;1.40;;
40515;SDS011;26216;53.724;9.898;2023-07-09T00:19:50;2.70;;;1.60;;
40515;SDS011;26216;53.724;9.898;2023-07-09T00:22:17;3.65;;;1.73;;
40515;SDS011;26216;53.724;9.898;2023-07-09T00:24:47;2.55;;;1.40;;
40515;SDS011;26216;53.724;9.898;2023-07-09T00:27:16;2.05;;;1.40;;
40515;SDS011;26216;53.724;9.898;2023-07-09T00:29:44;2.72;;;1.70;;
40515;SDS011;26216;53.724;9.898;2023-07-09T00:32:11;2.80;;;1.52;;
40515;SDS011;26216;53.724;9.898;2023-07-09T00:34:40;2.22;;;1.50;;
40515;SDS011;26216;53.724;9.898;2023-07-09T00:37:10;3.05;;;1.30;;
40515;SDS011;26216;53.724;9.898;2023-07-09T00:39:57;3.22;;;1.63;;
40515;SDS011;26216;53.724;9.898;2023-07-09T00:42:23;2.60;;;1.67;;
40515;SDS011;26216;53.724;9.898;2023-07-09T00:44:53;1.77;;;1.35;;
40515;SDS011;26216;53.724;9.898;2023-07-09T00:47:21;2.50;;;1.40;;
40515;SDS011;26216;53.724;9.898;2023-07-09T00:50:01;2.17;;;1.50;;
40515;SDS011;26216;53.724;9.898;2023-07-09T00:52:57;2.20;;;1.63;;
40515;SDS011;26216;53.724;9.898;2023-07-09T00:55:31;1.90;;;1.38;;
40515;SDS011;26216;53.724;9.898;2023-07-09T00:58:03;2.40;;;1.27;;
40515;SDS011;26216;53.724;9.898;2023-07-09T01:00:37;2.38;;;1.30;;
40515;SDS011;26216;53.724;9.898;2023-07-09T01:03:25;3.03;;;1.45;;
40515;SDS011;26216;53.724;9.898;2023-07-09T01:06:03;2.55;;;1.63;;
40515;SDS011;26216;53.724;9.898;2023-07-09T01:08:31;2.65;;;1.60;;
40515;SDS011;26216;53.724;9.898;2023-07-09T01:10:59;2.00;;;1.50;;
40515;SDS011;26216;53.724;9.898;2023-07-09T01:13:26;1.73;;;1.40;;
40515;SDS011;26216;53.724;9.898;2023-07-09T01:15:53;2.55;;;1.60;;
40515;SDS011;26216;53.724;9.898;2023-07-09T01:18:19;2.22;;;1.25;;
40515;SDS011;26216;53.724;9.898;2023-07-09T01:20:46;1.92;;;1.30;;
40515;SDS011;26216;53.724;9.898;2023-07-09T01:23:12;3.63;;;1.40;;
40515;SDS011;26216;53.724;9.898;2023-07-09T01:25:46;2.65;;;1.40;;
40515;SDS011;26216;53.724;9.898;2023-07-09T01:28:17;1.52;;;1.13;;
40515;SDS011;26216;53.724;9.898;2023-07-09T01:30:44;3.92;;;1.70;;
40515;SDS011;26216;53.724;9.898;2023-07-09T01:33:10;4.32;;;1.85;;
40515;SDS011;26216;53.724;9.898;2023-07-09T01:35:37;2.25;;;1.40;;
40515;SDS011;26216;53.724;9.898;2023-07-09T01:38:06;3.85;;;1.35;;
40515;SDS011;26216;53.724;9.898;2023-07-09T01:40:32;2.20;;;1.50;;
40515;SDS011;26216;53.724;9.898;2023-07-09T01:42:59;1.88;;;1.35;;
40515;SDS011;26216;53.724;9.898;2023-07-09T01:45:26;2.28;;;1.50;;
40515;SDS011;26216;53.724;9.898;2023-07-09T01:47:53;3.45;;;1.55;;
40515;SDS011;26216;53.724;9.898;2023-07-09T01:50:20;2.15;;;1.40;;
40515;SDS011;26216;53.724;9.898;2023-07-09T01:52:46;2.15;;;1.60;;
40515;SDS011;26216;53.724;9.898;2023-07-09T01:55:15;2.60;;;1.58;;
40515;SDS011;26216;53.724;9.898;2023-07-09T01:57:42;3.92;;;1.48;;
40515;SDS011;26216;53.724;9.898;2023-07-09T02:00:10;2.72;;;1.65;;
40515;SDS011;26216;53.724;9.898;2023-07-09T02:02:41;1.80;;;1.30;;
40515;SDS011;26216;53.724;9.898;2023-07-09T02:05:08;2.63;;;1.60;;
40515;SDS011;26216;53.724;9.898;2023-07-09T02:07:35;2.78;;;1.63;;
40515;SDS011;26216;53.724;9.898;2023-07-09T02:10:01;2.83;;;1.65;;
40515;SDS011;26216;53.724;9.898;2023-07-09T02:12:28;2.95;;;1.70;;
40515;SDS011;26216;53.724;9.898;2023-07-09T02:14:53;2.72;;;1.50;;
40515;SDS011;26216;53.724;9.898;2023-07-09T02:17:19;2.63;;;1.50;;
40515;SDS011;26216;53.724;9.898;2023-07-09T02:19:45;2.47;;;1.67;;
40515;SDS011;26216;53.724;9.898;2023-07-09T02:22:11;2.85;;;1.80;;
40515;SDS011;26216;53.724;9.898;2023-07-09T02:24:37;2.85;;;1.70;;
40515;SDS011;26216;53.724;9.898;2023-07-09T02:27:04;2.65;;;1.80;;
40515;SDS011;26216;53.724;9.898;2023-07-09T02:29:32;2.63;;;1.70;;
40515;SDS011;26216;53.724;9.898;2023-07-09T02:31:59;2.13;;;1.55;;
40515;SDS011;26216;53.724;9.898;2023-07-09T02:34:26;2.60;;;1.60;;
40515;SDS011;26216;53.724;9.898;2023-07-09T02:36:53;2.45;;;1.60;;
40515;SDS011;26216;53.724;9.898;2023-07-09T02:39:21;2.17;;;1.52;;
40515;SDS011;26216;53.724;9.898;2023-07-09T02:41:47;3.47;;;1.50;;
40515;SDS011;26216;53.724;9.898;2023-07-09T02:44:14;1.88;;;1.23;;
40515;SDS011;26216;53.724;9.898;2023-07-09T02:46:41;2.55;;;1.70;;
40515;SDS011;26216;53.724;9.898;2023-07-09T02:49:07;3.22;;;1.48;;
40515;SDS011;26216;53.724;9.898;2023-07-09T02:51:34;2.35;;;1.60;;
40515;SDS011;26216;53.724;9.898;2023-07-09T02:54:01;2.33;;;1.52;;
40515;SDS011;26216;53.724;9.898;2023-07-09T02:56:27;2.45;;;1.60;;
40515;SDS011;26216;53.724;9.898;2023-07-09T02:58:53;2.42;;;1.80;;
40515;SDS011;26216;53.724;9.898;2023-07-09T03:01:20;2.25;;;1.63;;
40515;SDS011;26216;53.724;9.898;2023-07-09T03:03:53;1.80;;;1.40;;
40515;SDS011;26216;53.724;9.898;2023-07-09T03:06:20;4.95;;;1.52;;
40515;SDS011;26216;53.724;9.898;2023-07-09T03:08:47;3.22;;;1.40;;
40515;SDS011;26216;53.724;9.898;2023-07-09T03:11:14;2.30;;;1.55;;
40515;SDS011;26216;53.724;9.898;2023-07-09T03:13:40;1.75;;;1.48;;
40515;SDS011;26216;53.724;9.898;2023-07-09T03:16:07;2.40;;;1.65;;
40515;SDS011;26216;53.724;9.898;2023-07-09T03:18:32;1.88;;;1.40;;
40515;SDS011;26216;53.724;9.898;2023-07-09T03:20:58;2.25;;;1.63;;
40515;SDS011;26216;53.724;9.898;2023-07-09T03:23:25;1.67;;;1.40;;
40515;SDS011;26216;53.724;9.898;2023-07-09T03:25:51;2.55;;;1.58;;
40515;SDS011;26216;53.724;9.898;2023-07-09T03:28:17;2.35;;;1.40;;
40515;SDS011;26216;53.724;9.898;2023-07-09T03:30:43;1.80;;;1.58;;
40515;SDS011;26216;53.724;9.898;2023-07-09T03:33:11;2.53;;;1.63;;
40515;SDS011;26216;53.724;9.898;2023-07-09T03:35:38;2.92;;;1.77;;
40515;SDS011;26216;53.724;9.898;2023-07-09T03:38:05;2.22;;;1.58;;
40515;SDS011;26216;53.724;9.898;2023-07-09T03:40:31;2.95;;;2.00;;
40515;SDS011;26216;53.724;9.898;2023-07-09T03:42:57;3.03;;;1.80;;
40515;SDS011;26216;53.724;9.898;2023-07-09T03:45:23;2.95;;;1.67;;
40515;SDS011;26216;53.724;9.898;2023-07-09T03:47:49;2.20;;;1.35;;
40515;SDS011;26216;53.724;9.898;2023-07-09T03:50:15;2.13;;;1.45;;
40515;SDS011;26216;53.724;9.898;2023-07-09T03:52:41;2.72;;;1.70;;
40515;SDS011;26216;53.724;9.898;2023-07-09T03:55:07;2.17;;;1.50;;
40515;SDS011;26216;53.724;9.898;2023-07-09T03:57:34;2.75;;;1.55;;
40515;SDS011;26216;53.724;9.898;2023-07-09T04:00:01;2.45;;;1.80;;
40515;SDS011;26216;53.724;9.898;2023-07-09T04:02:29;2.03;;;1.50;;
40515;SDS011;26216;53.724;9.898;2023-07-09T04:04:59;2.28;;;1.40;;
40515;SDS011;26216;53.724;9.898;2023-07-09T04:07:25;2.13;;;1.60;;
40515;SDS011;26216;53.724;9.898;2023-07-09T04:09:51;3.13;;;2.10;;
40515;SDS011;26216;53.724;9.898;2023-07-09T04:12:17;1.73;;;1.42;;
40515;SDS011;26216;53.724;9.898;2023-07-09T04:14:43;2.30;;;1.70;;
40515;SDS011;26216;53.724;9.898;2023-07-09T04:17:08;2.30;;;1.40;;
40515;SDS011;26216;53.724;9.898;2023-07-09T04:19:35;2.55;;;1.60;;
40515;SDS011;26216;53.724;9.898;2023-07-09T04:22:01;1.70;;;1.25;;
40515;SDS011;26216;53.724;9.898;2023-07-09T04:24:27;1.98;;;1.50;;
40515;SDS011;26216;53.724;9.898;2023-07-09T04:26:53;2.10;;;1.40;;
40515;SDS011;26216;53.724;9.898;2023-07-09T04:29:22;1.98;;;1.60;;
40515;SDS011;26216;53.724;9.898;2023-07-09T04:31:51;2.00;;;1.58;;
40515;SDS011;26216;53.724;9.898;2023-07-09T04:34:17;3.90;;;1.50;;
40515;SDS011;26216;53.724;9.898;2023-07-09T04:36:43;2.08;;;1.35;;
40515;SDS011;26216;53.724;9.898;2023-07-09T04:39:09;2.53;;;1.58;;
40515;SDS011;26216;53.724;9.898;2023-07-09T04:41:35;2.95;;;1.77;;
40515;SDS011;26216;53.724;9.898;2023-07-09T04:44:01;2.13;;;1.60;;
40515;SDS011;26216;53.724;9.898;2023-07-09T04:46:26;2.08;;;1.30;;
40515;SDS011;26216;53.724;9.898;2023-07-09T04:48:52;2.40;;;1.65;;
40515;SDS011;26216;53.724;9.898;2023-07-09T04:51:18;1.95;;;1.33;;
40515;SDS011;26216;53.724;9.898;2023-07-09T04:53:44;2.05;;;1.63;;
40515;SDS011;26216;53.724;9.898;2023-07-09T04:56:10;2.92;;;1.55;;
40515;SDS011;26216;53.724;9.898;2023-07-09T04:58:36;3.13;;;1.70;;
40515;SDS011;26216;53.724;9.898;2023-07-09T05:01:02;2.72;;;1.67;;
40515;SDS011;26216;53.724;9.898;2023-07-09T05:03:28;2.97;;;1.30;;
40515;SDS011;26216;53.724;9.898;2023-07-09T05:05:54;2.42;;;1.60;;
40515;SDS011;26216;53.724;9.898;2023-07-09T05:08:20;2.67;;;1.80;;
40515;SDS011;26216;53.724;9.898;2023-07-09T05:10:49;2.45;;;1.65;;
40515;SDS011;26216;53.724;9.898;2023-07-09T05:13:16;2.10;;;1.50;;
40515;SDS011;26216;53.724;9.898;2023-07-09T05:15:44;2.20;;;1.60;;
40515;SDS011;26216;53.724;9.898;2023-07-09T05:18:12;2.63;;;1.60;;
40515;SDS011;26216;53.724;9.898;2023-07-09T05:20:39;2.03;;;1.63;;
40515;SDS011;26216;53.724;9.898;2023-07-09T05:23:06;3.88;;;1.60;;
40515;SDS011;26216;53.724;9.898;2023-07-09T05:25:36;3.25;;;1.70;;
40515;SDS011;26216;53.724;9.898;2023-07-09T05:28:02;2.58;;;1.80;;
40515;SDS011;26216;53.724;9.898;2023-07-09T05:30:29;2.47;;;1.63;;
40515;SDS011;26216;53.724;9.898;2023-07-09T05:32:54;1.98;;;1.40;;
40515;SDS011;26216;53.724;9.898;2023-07-09T05:35:25;2.35;;;1.50;;
40515;SDS011;26216;53.724;9.898;2023-07-09T05:37:53;2.85;;;1.50;;
40515;SDS011;26216;53.724;9.898;2023-07-09T05:40:19;3.17;;;1.90;;
40515;SDS011;26216;53.724;9.898;2023-07-09T05:42:47;2.38;;;1.80;;
40515;SDS011;26216;53.724;9.898;2023-07-09T05:45:13;3.33;;;1.73;;
40515;SDS011;26216;53.724;9.898;2023-07-09T05:47:40;2.65;;;1.70;;
40515;SDS011;26216;53.724;9.898;2023-07-09T05:50:06;2.55;;;1.65;;
40515;SDS011;26216;53.724;9.898;2023-07-09T05:52:32;2.55;;;1.75;;
40515;SDS011;26216;53.724;9.898;2023-07-09T05:54:58;2.33;;;1.65;;
40515;SDS011;26216;53.724;9.898;2023-07-09T05:57:24;2.92;;;1.90;;
40515;SDS011;26216;53.724;9.898;2023-07-09T05:59:51;2.95;;;2.00;;
40515;SDS011;26216;53.724;9.898;2023-07-09T06:02:18;2.65;;;1.83;;
40515;SDS011;26216;53.724;9.898;2023-07-09T06:04:45;2.13;;;1.67;;
40515;SDS011;26216;53.724;9.898;2023-07-09T06:07:12;6.10;;;2.20;;
40515;SDS011;26216;53.724;9.898;2023-07-09T06:09:39;2.28;;;1.90;;
40515;SDS011;26216;53.724;9.898;2023-07-09T06:12:05;2.13;;;1.60;;
40515;SDS011;26216;53.724;9.898;2023-07-09T06:14:32;3.10;;;1.90;;
40515;SDS011;26216;53.724;9.898;2023-07-09T06:16:58;2.33;;;1.63;;
40515;SDS011;26216;53.724;9.898;2023-07-09T06:19:25;2.55;;;1.70;;
40515;SDS011;26216;53.724;9.898;2023-07-09T06:21:51;2.65;;;1.85;;
40515;SDS011;26216;53.724;9.898;2023-07-09T06:24:17;2.63;;;1.70;;
40515;SDS011;26216;53.724;9.898;2023-07-09T06:26:43;3.72;;;2.15;;
40515;SDS011;26216;53.724;9.898;2023-07-09T06:29:09;2.38;;;1.50;;
40515;SDS011;26216;53.724;9.898;2023-07-09T06:31:35;2.47;;;1.80;;
40515;SDS011;26216;53.724;9.898;2023-07-09T06:34:02;2.38;;;1.60;;
40515;SDS011;26216;53.724;9.898;2023-07-09T06:36:29;4.22;;;2.20;;
40515;SDS011;26216;53.724;9.898;2023-07-09T06:38:55;2.10;;;1.60;;
40515;SDS011;26216;53.724;9.898;2023-07-09T06:41:21;2.33;;;1.90;;
40515;SDS011;26216;53.724;9.898;2023-07-09T06:43:47;2.65;;;2.13;;
40515;SDS011;26216;53.724;9.898;2023-07-09T06:46:13;2.47;;;1.88;;
40515;SDS011;26216;53.724;9.898;2023-07-09T06:48:40;1.95;;;1.67;;
40515;SDS011;26216;53.724;9.898;2023-07-09T06:51:06;2.72;;;1.85;;
40515;SDS011;26216;53.724;9.898;2023-07-09T06:53:32;3.38;;;1.60;;
40515;SDS011;26216;53.724;9.898;2023-07-09T06:55:57;3.33;;;1.77;;
40515;SDS011;26216;53.724;9.898;2023-07-09T06:58:25;2.65;;;1.60;;
40515;SDS011;26216;53.724;9.898;2023-07-09T07:00:53;2.33;;;1.70;;
40515;SDS011;26216;53.724;9.898;2023-07-09T07:03:20;2.28;;;1.98;;
40515;SDS011;26216;53.724;9.898;2023-07-09T07:05:47;2.35;;;1.60;;
40515;SDS011;26216;53.724;9.898;2023-07-09T07:08:18;2.08;;;1.60;;
40515;SDS011;26216;53.724;9.898;2023-07-09T07:10:47;2.70;;;2.00;;
40515;SDS011;26216;53.724;9.898;2023-07-09T07:13:13;3.38;;;1.88;;
40515;SDS011;26216;53.724;9.898;2023-07-09T07:15:39;2.20;;;1.67;;
40515;SDS011;26216;53.724;9.898;2023-07-09T07:18:06;3.67;;;1.90;;
40515;SDS011;26216;53.724;9.898;2023-07-09T07:20:33;2.42;;;2.00;;
40515;SDS011;26216;53.724;9.898;2023-07-09T07:22:59;2.25;;;1.52;;
40515;SDS011;26216;53.724;9.898;2023-07-09T07:25:25;2.95;;;1.75;;
40515;SDS011;26216;53.724;9.898;2023-07-09T07:27:51;2.65;;;1.95;;
40515;SDS011;26216;53.724;9.898;2023-07-09T07:30:18;2.75;;;1.70;;
40515;SDS011;26216;53.724;9.898;2023-07-09T07:32:46;2.40;;;1.70;;
40515;SDS011;26216;53.724;9.898;2023-07-09T07:35:14;2.47;;;1.60;;
40515;SDS011;26216;53.724;9.898;2023-07-09T07:37:40;2.13;;;1.70;;
40515;SDS011;26216;53.724;9.898;2023-07-09T07:40:08;3.20;;;1.92;;
40515;SDS011;26216;53.724;9.898;2023-07-09T07:42:35;2.55;;;2.10;;
40515;SDS011;26216;53.724;9.898;2023-07-09T07:45:02;4.10;;;2.08;;
40515;SDS011;26216;53.724;9.898;2023-07-09T07:47:29;2.97;;;2.17;;
40515;SDS011;26216;53.724;9.898;2023-07-09T07:49:55;3.38;;;2.03;;
40515;SDS011;26216;53.724;9.898;2023-07-09T07:52:22;2.33;;;2.03;;
40515;SDS011;26216;53.724;9.898;2023-07-09T07:54:48;2.70;;;1.92;;
40515;SDS011;26216;53.724;9.898;2023-07-09T07:57:14;3.63;;;2.00;;
40515;SDS011;26216;53.724;9.898;2023-07-09T07:59:40;1.95;;;1.63;;
40515;SDS011;26216;53.724;9.898;2023-07-09T08:02:08;2.53;;;1.92;;
40515;SDS011;26216;53.724;9.898;2023-07-09T08:04:37;2.10;;;1.75;;
40515;SDS011;26216;53.724;9.898;2023-07-09T08:07:04;2.63;;;1.95;;
40515;SDS011;26216;53.724;9.898;2023-07-09T08:09:30;3.05;;;2.10;;
40515;SDS011;26216;53.724;9.898;2023-07-09T08:11:56;2.45;;;1.75;;
40515;SDS011;26216;53.724;9.898;2023-07-09T08:14:22;2.30;;;1.70;;
40515;SDS011;26216;53.724;9.898;2023-07-09T08:16:48;2.30;;;2.00;;
40515;SDS011;26216;53.724;9.898;2023-07-09T08:19:14;3.55;;;2.03;;
40515;SDS011;26216;53.724;9.898;2023-07-09T08:21:40;2.05;;;1.67;;
40515;SDS011;26216;53.724;9.898;2023-07-09T08:24:06;3.03;;;1.70;;
40515;SDS011;26216;53.724;9.898;2023-07-09T08:26:32;2.38;;;1.65;;
40515;SDS011;26216;53.724;9.898;2023-07-09T08:29:05;2.40;;;1.90;;
40515;SDS011;26216;53.724;9.898;2023-07-09T08:31:31;2.08;;;1.77;;
40515;SDS011;26216;53.724;9.898;2023-07-09T08:33:57;2.20;;;1.80;;
40515;SDS011;26216;53.724;9.898;2023-07-09T08:36:23;2.40;;;2.00;;
40515;SDS011;26216;53.724;9.898;2023-07-09T08:38:49;2.00;;;1.77;;
40515;SDS011;26216;53.724;9.898;2023-07-09T08:41:20;3.35;;;2.10;;
40515;SDS011;26216;53.724;9.898;2023-07-09T08:47:02;2.45;;;1.90;;
40515;SDS011;26216;53.724;9.898;2023-07-09T08:49:42;3.33;;;2.53;;
40515;SDS011;26216;53.724;9.898;2023-07-09T08:52:35;2.88;;;2.00;;
40515;SDS011;26216;53.724;9.898;2023-07-09T08:55:05;2.60;;;2.20;;
40515;SDS011;26216;53.724;9.898;2023-07-09T08:57:39;3.00;;;2.10;;
40515;SDS011;26216;53.724;9.898;2023-07-09T09:00:17;3.08;;;2.13;;
40515;SDS011;26216;53.724;9.898;2023-07-09T09:03:00;2.40;;;1.80;;
40515;SDS011;26216;53.724;9.898;2023-07-09T09:05:33;2.25;;;1.90;;
40515;SDS011;26216;53.724;9.898;2023-07-09T09:11:17;3.13;;;2.30;;
40515;SDS011;26216;53.724;9.898;2023-07-09T09:13:47;2.92;;;1.88;;
40515;SDS011;26216;53.724;9.898;2023-07-09T09:16:36;2.83;;;2.00;;
40515;SDS011;26216;53.724;9.898;2023-07-09T09:19:10;2.42;;;2.00;;
40515;SDS011;26216;53.724;9.898;2023-07-09T09:25:31;2.78;;;2.17;;
40515;SDS011;26216;53.724;9.898;2023-07-09T09:27:59;2.65;;;1.90;;
40515;SDS011;26216;53.724;9.898;2023-07-09T09:30:40;3.28;;;2.00;;
40515;SDS011;26216;53.724;9.898;2023-07-09T09:33:07;3.25;;;2.53;;
40515;SDS011;26216;53.724;9.898;2023-07-09T09:35:41;2.70;;;2.33;;
40515;SDS011;26216;53.724;9.898;2023-07-09T09:38:16;2.90;;;1.90;;
40515;SDS011;26216;53.724;9.898;2023-07-09T09:40:44;2.65;;;2.28;;
40515;SDS011;26216;53.724;9.898;2023-07-09T09:43:17;2.63;;;1.70;;
40515;SDS011;26216;53.724;9.898;2023-07-09T09:45:49;3.83;;;2.05;;
40515;SDS011;26216;53.724;9.898;2023-07-09T09:50:51;2.90;;;2.15;;
40515;SDS011;26216;53.724;9.898;2023-07-09T09:53:18;2.67;;;2.28;;
40515;SDS011;26216;53.724;9.898;2023-07-09T09:55:47;2.58;;;2.10;;
40515;SDS011;26216;53.724;9.898;2023-07-09T09:58:16;3.03;;;2.40;;
40515;SDS011;26216;53.724;9.898;2023-07-09T10:00:47;2.30;;;2.00;;
40515;SDS011;26216;53.724;9.898;2023-07-09T10:03:15;2.72;;;2.22;;
40515;SDS011;26216;53.724;9.898;2023-07-09T10:05:43;3.20;;;2.33;;
40515;SDS011;26216;53.724;9.898;2023-07-09T10:13:29;3.13;;;2.33;;
40515;SDS011;26216;53.724;9.898;2023-07-09T10:18:56;2.55;;;2.10;;
40515;SDS011;26216;53.724;9.898;2023-07-09T10:21:47;2.83;;;2.10;;
40515;SDS011;26216;53.724;9.898;2023-07-09T10:27:13;3.38;;;2.53;;
40515;SDS011;26216;53.724;9.898;2023-07-09T10:40:08;3.15;;;2.40;;
40515;SDS011;26216;53.724;9.898;2023-07-09T10:42:56;2.40;;;2.20;;
40515;SDS011;26216;53.724;9.898;2023-07-09T10:45:28;2.47;;;2.17;;
40515;SDS011;26216;53.724;9.898;2023-07-09T10:48:02;3.22;;;2.17;;
40515;SDS011;26216;53.724;9.898;2023-07-09T10:50:35;3.28;;;2.40;;
40515;SDS011;26216;53.724;9.898;2023-07-09T10:53:14;2.50;;;2.20;;
40515;SDS011;26216;53.724;9.898;2023-07-09T10:55:49;2.53;;;2.33;;
40515;SDS011;26216;53.724;9.898;2023-07-09T10:58:28;3.00;;;2.40;;
40515;SDS011;26216;53.724;9.898;2023-07-09T11:01:14;3.03;;;2.55;;
40515;SDS011;26216;53.724;9.898;2023-07-09T11:03:50;3.00;;;2.13;;
40515;SDS011;26216;53.724;9.898;2023-07-09T11:06:23;3.23;;;2.30;;
40515;SDS011;26216;53.724;9.898;2023-07-09T11:08:56;3.08;;;1.95;;
40515;SDS011;26216;53.724;9.898;2023-07-09T11:11:25;2.50;;;2.30;;
40515;SDS011;26216;53.724;9.898;2023-07-09T11:13:59;2.85;;;2.17;;
40515;SDS011;26216;53.724;9.898;2023-07-09T11:16:32;2.67;;;2.28;;
40515;SDS011;26216;53.724;9.898;2023-07-09T11:19:02;2.55;;;2.22;;
40515;SDS011;26216;53.724;9.898;2023-07-09T11:21:31;2.78;;;2.38;;
40515;SDS011;26216;53.724;9.898;2023-07-09T11:24:00;3.58;;;2.50;;
40515;SDS011;26216;53.724;9.898;2023-07-09T11:26:28;2.67;;;2.42;;
40515;SDS011;26216;53.724;9.898;2023-07-09T11:29:14;2.80;;;2.33;;
40515;SDS011;26216;53.724;9.898;2023-07-09T11:31:43;3.42;;;2.45;;
40515;SDS011;26216;53.724;9.898;2023-07-09T11:36:48;2.50;;;2.08;;
40515;SDS011;26216;53.724;9.898;2023-07-09T11:39:21;2.60;;;2.40;;
40515;SDS011;26216;53.724;9.898;2023-07-09T11:41:52;2.63;;;2.08;;
40515;SDS011;26216;53.724;9.898;2023-07-09T11:44:20;3.25;;;2.83;;
40515;SDS011;26216;53.724;9.898;2023-07-09T11:46:50;3.10;;;2.80;;
40515;SDS011;26216;53.724;9.898;2023-07-09T11:49:23;3.15;;;2.75;;
40515;SDS011;26216;53.724;9.898;2023-07-09T11:51:54;2.50;;;1.90;;
40515;SDS011;26216;53.724;9.898;2023-07-09T11:54:24;2.60;;;2.30;;
40515;SDS011;26216;53.724;9.898;2023-07-09T11:56:54;3.00;;;2.35;;
40515;SDS011;26216;53.724;9.898;2023-07-09T11:59:26;4.05;;;2.60;;
40515;SDS011;26216;53.724;9.898;2023-07-09T12:01:52;2.35;;;2.10;;
40515;SDS011;26216;53.724;9.898;2023-07-09T12:04:21;3.00;;;2.30;;
40515;SDS011;26216;53.724;9.898;2023-07-09T12:06:53;2.78;;;2.40;;
40515;SDS011;26216;53.724;9.898;2023-07-09T12:09:23;2.83;;;2.30;;
40515;SDS011;26216;53.724;9.898;2023-07-09T12:11:49;3.58;;;2.40;;
40515;SDS011;26216;53.724;9.898;2023-07-09T12:14:17;2.80;;;2.38;;
40515;SDS011;26216;53.724;9.898;2023-07-09T12:16:54;2.67;;;2.00;;
40515;SDS011;26216;53.724;9.898;2023-07-09T12:19:21;3.00;;;2.67;;
40515;SDS011;26216;53.724;9.898;2023-07-09T12:21:53;2.60;;;2.33;;
40515;SDS011;26216;53.724;9.898;2023-07-09T12:24:24;2.90;;;2.40;;
40515;SDS011;26216;53.724;9.898;2023-07-09T12:29:43;3.67;;;2.80;;
40515;SDS011;26216;53.724;9.898;2023-07-09T12:32:11;3.15;;;2.63;;
40515;SDS011;26216;53.724;9.898;2023-07-09T12:34:41;2.53;;;2.15;;
40515;SDS011;26216;53.724;9.898;2023-07-09T12:37:12;2.80;;;2.50;;
40515;SDS011;26216;53.724;9.898;2023-07-09T12:39:40;2.97;;;2.40;;
40515;SDS011;26216;53.724;9.898;2023-07-09T12:42:12;2.70;;;2.30;;
40515;SDS011;26216;53.724;9.898;2023-07-09T12:44:44;2.80;;;2.40;;
40515;SDS011;26216;53.724;9.898;2023-07-09T12:47:14;2.50;;;2.30;;
40515;SDS011;26216;53.724;9.898;2023-07-09T12:49:42;2.70;;;2.40;;
40515;SDS011;26216;53.724;9.898;2023-07-09T12:52:20;4.68;;;2.85;;
40515;SDS011;26216;53.724;9.898;2023-07-09T12:57:23;3.80;;;2.63;;
40515;SDS011;26216;53.724;9.898;2023-07-09T12:59:50;2.80;;;2.50;;
40515;SDS011;26216;53.724;9.898;2023-07-09T13:02:20;2.50;;;2.30;;
40515;SDS011;26216;53.724;9.898;2023-07-09T13:05:00;2.97;;;2.55;;
40515;SDS011;26216;53.724;9.898;2023-07-09T13:07:31;3.10;;;2.58;;
40515;SDS011;26216;53.724;9.898;2023-07-09T13:12:32;2.60;;;2.40;;
40515;SDS011;26216;53.724;9.898;2023-07-09T13:14:59;3.42;;;3.00;;
40515;SDS011;26216;53.724;9.898;2023-07-09T13:17:28;2.83;;;2.53;;
40515;SDS011;26216;53.724;9.898;2023-07-09T13:19:58;3.28;;;2.78;;
40515;SDS011;26216;53.724;9.898;2023-07-09T13:22:24;2.60;;;2.40;;
40515;SDS011;26216;53.724;9.898;2023-07-09T13:24:51;2.95;;;2.65;;
40515;SDS011;26216;53.724;9.898;2023-07-09T13:27:17;2.88;;;2.58;;
40515;SDS011;26216;53.724;9.898;2023-07-09T13:29:43;3.22;;;2.88;;
40515;SDS011;26216;53.724;9.898;2023-07-09T13:32:12;4.13;;;2.60;;
40515;SDS011;26216;53.724;9.898;2023-07-09T13:34:40;2.88;;;2.58;;
40515;SDS011;26216;53.724;9.898;2023-07-09T13:37:13;3.40;;;3.10;;
40515;SDS011;26216;53.724;9.898;2023-07-09T13:39:40;3.25;;;2.70;;
40515;SDS011;26216;53.724;9.898;2023-07-09T13:42:11;4.60;;;2.92;;
40515;SDS011;26216;53.724;9.898;2023-07-09T13:44:40;2.95;;;2.53;;
40515;SDS011;26216;53.724;9.898;2023-07-09T13:47:16;2.92;;;2.65;;
40515;SDS011;26216;53.724;9.898;2023-07-09T13:49:44;3.47;;;2.95;;
40515;SDS011;26216;53.724;9.898;2023-07-09T13:52:17;3.40;;;2.83;;
40515;SDS011;26216;53.724;9.898;2023-07-09T13:54:45;3.72;;;2.53;;
40515;SDS011;26216;53.724;9.898;2023-07-09T13:57:17;3.30;;;3.00;;
40515;SDS011;26216;53.724;9.898;2023-07-09T13:59:45;3.10;;;2.53;;
40515;SDS011;26216;53.724;9.898;2023-07-09T14:02:23;2.55;;;2.35;;
40515;SDS011;26216;53.724;9.898;2023-07-09T14:05:00;3.20;;;2.20;;
40515;SDS011;26216;53.724;9.898;2023-07-09T14:07:30;3.70;;;2.60;;
40515;SDS011;26216;53.724;9.898;2023-07-09T14:09:59;3.75;;;2.50;;
40515;SDS011;26216;53.724;9.898;2023-07-09T14:12:42;2.90;;;2.60;;
40515;SDS011;26216;53.724;9.898;2023-07-09T14:15:17;2.70;;;2.30;;
40515;SDS011;26216;53.724;9.898;2023-07-09T14:17:45;3.22;;;2.20;;
40515;SDS011;26216;53.724;9.898;2023-07-09T14:20:13;4.28;;;2.88;;
40515;SDS011;26216;53.724;9.898;2023-07-09T14:22:40;3.90;;;2.85;;
40515;SDS011;26216;53.724;9.898;2023-07-09T14:25:20;3.20;;;2.53;;
40515;SDS011;26216;53.724;9.898;2023-07-09T14:27:51;3.10;;;2.47;;
40515;SDS011;26216;53.724;9.898;2023-07-09T14:30:22;4.18;;;2.70;;
40515;SDS011;26216;53.724;9.898;2023-07-09T14:32:50;3.60;;;2.88;;
40515;SDS011;26216;53.724;9.898;2023-07-09T14:35:21;3.20;;;2.90;;
40515;SDS011;26216;53.724;9.898;2023-07-09T14:37:50;3.63;;;3.03;;
40515;SDS011;26216;53.724;9.898;2023-07-09T14:40:18;2.97;;;2.67;;
40515;SDS011;26216;53.724;9.898;2023-07-09T14:42:45;3.13;;;2.58;;
40515;SDS011;26216;53.724;9.898;2023-07-09T14:45:30;3.35;;;2.97;;
40515;SDS011;26216;53.724;9.898;2023-07-09T14:47:57;2.50;;;2.30;;
40515;SDS011;26216;53.724;9.898;2023-07-09T14:50:23;3.17;;;2.70;;
40515;SDS011;26216;53.724;9.898;2023-07-09T14:52:50;3.30;;;2.53;;
40515;SDS011;26216;53.724;9.898;2023-07-09T14:55:18;2.78;;;2.38;;
40515;SDS011;26216;53.724;9.898;2023-07-09T14:57:46;4.13;;;2.60;;
40515;SDS011;26216;53.724;9.898;2023-07-09T15:00:16;3.35;;;3.00;;
40515;SDS011;26216;53.724;9.898;2023-07-09T15:02:45;3.85;;;2.67;;
40515;SDS011;26216;53.724;9.898;2023-07-09T15:05:21;3.85;;;3.08;;
40515;SDS011;26216;53.724;9.898;2023-07-09T15:07:49;3.35;;;2.83;;
40515;SDS011;26216;53.724;9.898;2023-07-09T15:10:16;3.70;;;3.13;;
40515;SDS011;26216;53.724;9.898;2023-07-09T15:12:46;5.30;;;3.05;;
40515;SDS011;26216;53.724;9.898;2023-07-09T15:17:45;4.53;;;3.63;;
40515;SDS011;26216;53.724;9.898;2023-07-09T15:20:15;3.10;;;2.80;;
40515;SDS011;26216;53.724;9.898;2023-07-09T15:22:45;3.47;;;2.60;;
40515;SDS011;26216;53.724;9.898;2023-07-09T15:25:13;3.28;;;2.80;;
40515;SDS011;26216;53.724;9.898;2023-07-09T15:27:41;3.65;;;3.22;;
40515;SDS011;26216;53.724;9.898;2023-07-09T15:30:13;3.53;;;2.92;;
40515;SDS011;26216;53.724;9.898;2023-07-09T15:32:45;3.30;;;2.90;;
40515;SDS011;26216;53.724;9.898;2023-07-09T15:35:19;5.38;;;2.78;;
40515;SDS011;26216;53.724;9.898;2023-07-09T15:37:45;3.67;;;3.15;;
40515;SDS011;26216;53.724;9.898;2023-07-09T15:40:25;3.47;;;3.08;;
40515;SDS011;26216;53.724;9.898;2023-07-09T15:42:56;3.53;;;3.13;;
40515;SDS011;26216;53.724;9.898;2023-07-09T15:45:43;2.97;;;2.67;;
40515;SDS011;26216;53.724;9.898;2023-07-09T15:48:21;3.97;;;3.35;;